Time;durP1;ratioP1;P1;durP2;ratioP2;P2;SDS_P1;SDS_P2;PMS_P1;PMS_P2;Temp;Humidity;BMP_temperature;BMP_pressure;BME280_temperature;BME280_humidity;BME280_pressure;Samples;Min_cycle;Max_cycle;Signal;HPM_P1;HPM_P2
2022/05/22 07:01:15;;;;;;;5.50;3.85;;;;;;;;;;5415656;22;1292232;-57
2022/05/22 07:04:16;;;;;;;6.90;3.78;;;;;;;;;;6308042;28;20040;-66
2022/05/22 07:07:17;;;;;;;6.00;3.40;;;;;;;;;;6306726;28;20162;-58
2022/05/22 07:10:18;;;;;;;7.20;3.53;;;;;;;;;;6304510;28;20094;-57
2022/05/22 07:13:19;;;;;;;7.50;3.03;;;;;;;;;;6299179;28;20093;-58
2022/05/22 07:16:20;;;;;;;7.57;3.13;;;;;;;;;;6295524;28;20304;-52
2022/05/22 07:19:21;;;;;;;6.70;2.83;;;;;;;;;;6298626;28;20340;-55
2022/05/22 07:22:22;;;;;;;7.32;3.05;;;;;;;;;;6291362;28;20060;-67
2022/05/22 07:25:23;;;;;;;7.63;3.28;;;;;;;;;;6295525;28;20048;-54
2022/05/22 07:28:24;;;;;;;8.48;2.95;;;;;;;;;;6295728;28;20041;-56
2022/05/22 07:31:26;;;;;;;4.80;2.85;;;;;;;;;;6295892;28;21778;-55
2022/05/22 07:34:26;;;;;;;;;;;;;;;;;;6293800;28;20041;-55
2022/05/22 07:37:27;;;;;;;8.00;2.80;;;;;;;;;;6298970;28;20015;-58
2022/05/22 07:40:29;;;;;;;6.43;2.75;;;;;;;;;;6298476;28;20048;-53
2022/05/22 07:43:29;;;;;;;5.53;2.80;;;;;;;;;;6296493;28;20041;-57
2022/05/22 07:46:30;;;;;;;7.80;2.80;;;;;;;;;;6294884;28;20071;-56
2022/05/22 07:52:50;;;;;;;6.43;3.42;;;;;;;;;;6292481;28;20055;-58
2022/05/22 07:55:50;;;;;;;5.65;2.60;;;;;;;;;;6291922;28;20570;-55
2022/05/22 07:58:51;;;;;;;6.53;2.85;;;;;;;;;;6295373;28;20403;-57
2022/05/22 08:01:52;;;;;;;6.75;2.60;;;;;;;;;;6304078;28;20086;-53
2022/05/22 08:04:52;;;;;;;9.32;2.90;;;;;;;;;;6301522;28;20205;-55
2022/05/22 08:07:53;;;;;;;5.05;2.65;;;;;;;;;;6300610;28;20567;-57
2022/05/22 08:10:56;;;;;;;8.35;2.70;;;;;;;;;;6302222;28;20047;-53
2022/05/22 08:13:56;;;;;;;6.82;2.50;;;;;;;;;;6302521;28;20062;-56
2022/05/22 08:16:58;;;;;;;7.85;2.80;;;;;;;;;;6303015;28;20495;-49
2022/05/22 08:19:58;;;;;;;7.70;2.67;;;;;;;;;;6297081;28;20498;-57
2022/05/22 08:23:04;;;;;;;7.15;2.70;;;;;;;;;;6299478;28;20056;-57
2022/05/22 08:26:04;;;;;;;4.38;2.30;;;;;;;;;;6294333;28;20044;-58
2022/05/22 08:29:05;;;;;;;5.40;2.75;;;;;;;;;;6296564;28;21495;-55
2022/05/22 08:32:06;;;;;;;4.85;2.30;;;;;;;;;;6300649;28;20044;-54
2022/05/22 08:35:09;;;;;;;4.72;2.28;;;;;;;;;;6295783;28;20495;-57
2022/05/22 08:38:11;;;;;;;9.18;2.38;;;;;;;;;;6296977;28;20176;-57
2022/05/22 08:41:13;;;;;;;6.32;2.05;;;;;;;;;;6297712;28;20075;-55
2022/05/22 08:44:30;;;;;;;6.50;2.50;;;;;;;;;;6298047;28;20510;-55
2022/05/22 08:48:03;;;;;;;5.32;2.10;;;;;;;;;;6297344;28;20048;-53
2022/05/22 08:51:11;;;;;;;5.70;2.03;;;;;;;;;;6298204;28;20174;-57
2022/05/22 08:54:30;;;;;;;5.25;2.00;;;;;;;;;;6294564;28;20080;-59
2022/05/22 09:01:25;;;;;;;8.35;2.35;;;;;;;;;;6301990;28;20089;-56
2022/05/22 09:04:45;;;;;;;5.10;1.88;;;;;;;;;;6301499;28;20093;-57
2022/05/22 09:07:58;;;;;;;6.47;2.03;;;;;;;;;;6298671;28;20066;-56
2022/05/22 09:11:08;;;;;;;6.80;2.03;;;;;;;;;;6298700;28;20059;-55
2022/05/22 09:14:16;;;;;;;5.78;2.13;;;;;;;;;;6298061;28;20097;-57
2022/05/22 09:17:25;;;;;;;8.48;1.98;;;;;;;;;;6298731;28;20407;-55
2022/05/22 09:20:36;;;;;;;5.22;1.88;;;;;;;;;;6299331;28;20158;-56
2022/05/22 09:23:50;;;;;;;7.63;2.72;;;;;;;;;;6297110;28;20060;-55
2022/05/22 09:27:24;;;;;;;6.22;2.13;;;;;;;;;;6302009;28;20125;-54
2022/05/22 09:30:41;;;;;;;5.38;1.85;;;;;;;;;;6280149;28;20042;-57
2022/05/22 09:33:45;;;;;;;6.45;2.17;;;;;;;;;;6302626;28;20066;-57
2022/05/22 09:36:48;;;;;;;5.32;2.10;;;;;;;;;;6301347;28;20113;-54
2022/05/22 09:40:19;;;;;;;3.70;1.80;;;;;;;;;;6296055;28;20055;-57
2022/05/22 09:43:47;;;;;;;7.18;2.30;;;;;;;;;;6302091;28;20143;-56
2022/05/22 09:47:22;;;;;;;6.90;1.80;;;;;;;;;;6300663;28;20137;-56
2022/05/22 09:50:31;;;;;;;7.72;2.17;;;;;;;;;;6300219;28;20044;-54
2022/05/22 09:53:46;;;;;;;5.70;2.20;;;;;;;;;;6300405;28;20046;-54
2022/05/22 09:56:49;;;;;;;5.18;2.75;;;;;;;;;;6299999;28;20040;-54
2022/05/22 10:00:02;;;;;;;4.70;1.92;;;;;;;;;;6301387;28;20144;-58
2022/05/22 10:03:15;;;;;;;8.18;1.90;;;;;;;;;;6297151;28;20175;-58
2022/05/22 10:06:40;;;;;;;6.88;2.03;;;;;;;;;;6301158;28;20084;-58
2022/05/22 10:09:49;;;;;;;7.07;2.10;;;;;;;;;;6298400;28;20054;-54
2022/05/22 10:13:15;;;;;;;4.43;1.98;;;;;;;;;;6300938;28;20055;-54
2022/05/22 10:16:36;;;;;;;7.68;2.05;;;;;;;;;;6302718;28;20485;-58
2022/05/22 10:19:52;;;;;;;5.07;1.77;;;;;;;;;;6297051;28;20043;-57
2022/05/22 10:23:10;;;;;;;5.03;2.10;;;;;;;;;;6300647;28;20071;-57
2022/05/22 10:26:38;;;;;;;6.03;2.35;;;;;;;;;;6297074;28;20582;-55
2022/05/22 10:30:00;;;;;;;4.93;1.73;;;;;;;;;;6299719;28;20139;-56
2022/05/22 10:33:06;;;;;;;;;;;;;;;;;;6300707;28;20095;-54
2022/05/22 10:36:12;;;;;;;3.97;1.67;;;;;;;;;;6298840;28;19924;-58
2022/05/22 10:39:14;;;;;;;4.38;1.70;;;;;;;;;;6300514;28;20088;-56
2022/05/22 10:42:45;;;;;;;6.68;2.00;;;;;;;;;;6299596;28;20075;-57
2022/05/22 10:45:46;;;;;;;5.40;2.20;;;;;;;;;;6301251;28;20095;-58
2022/05/22 10:48:55;;;;;;;5.15;2.00;;;;;;;;;;6300244;28;20032;-57
2022/05/22 10:51:57;;;;;;;4.65;1.50;;;;;;;;;;6298680;28;20063;-56
2022/05/22 10:54:58;;;;;;;5.25;2.25;;;;;;;;;;6301542;28;20048;-57
2022/05/22 10:58:06;;;;;;;3.50;1.70;;;;;;;;;;6299260;28;20561;-57
2022/05/22 11:01:17;;;;;;;5.07;2.08;;;;;;;;;;6300275;28;20052;-57
2022/05/22 11:04:18;;;;;;;6.43;1.63;;;;;;;;;;6301614;28;20185;-57
2022/05/22 11:07:43;;;;;;;5.57;1.50;;;;;;;;;;6297517;28;20056;-57
2022/05/22 11:10:45;;;;;;;5.18;1.75;;;;;;;;;;6299595;28;20131;-59
2022/05/22 11:13:46;;;;;;;4.22;1.30;;;;;;;;;;6299454;28;20048;-57
2022/05/22 11:16:47;;;;;;;5.30;1.40;;;;;;;;;;6300297;28;20551;-57
2022/05/22 11:19:52;;;;;;;4.20;1.50;;;;;;;;;;6297441;28;20344;-56
2022/05/22 11:23:12;;;;;;;3.30;1.40;;;;;;;;;;6299036;28;20155;-57
2022/05/22 11:26:25;;;;;;;4.10;1.35;;;;;;;;;;6300507;28;20097;-59
2022/05/22 11:29:52;;;;;;;3.75;1.50;;;;;;;;;;6297889;28;20134;-57
2022/05/22 11:33:19;;;;;;;4.50;1.80;;;;;;;;;;6303420;28;20141;-58
2022/05/22 11:36:52;;;;;;;6.30;1.73;;;;;;;;;;6305780;28;20131;-57
2022/05/22 11:40:26;;;;;;;5.68;1.40;;;;;;;;;;6300065;28;20055;-56
2022/05/22 11:44:00;;;;;;;3.33;1.50;;;;;;;;;;6303402;28;20052;-56
2022/05/22 11:47:20;;;;;;;5.10;1.40;;;;;;;;;;6298892;28;20051;-56
2022/05/22 11:50:20;;;;;;;5.30;1.20;;;;;;;;;;6300860;28;20067;-57
2022/05/22 11:53:24;;;;;;;4.03;1.35;;;;;;;;;;6300442;28;20124;-58
2022/05/22 11:56:25;;;;;;;4.10;1.50;;;;;;;;;;6296886;28;20110;-57
2022/05/22 11:59:35;;;;;;;3.00;1.30;;;;;;;;;;6300059;28;20520;-56
2022/05/22 12:02:55;;;;;;;6.60;1.70;;;;;;;;;;6299647;28;20154;-56
2022/05/22 12:06:35;;;;;;;4.80;2.13;;;;;;;;;;6300820;28;20048;-55
2022/05/22 12:10:05;;;;;;;4.15;1.73;;;;;;;;;;6301313;28;20897;-53
2022/05/22 12:13:38;;;;;;;5.82;1.80;;;;;;;;;;6300955;28;20059;-52
2022/05/22 12:16:43;;;;;;;4.38;1.45;;;;;;;;;;6300851;28;20132;-56
2022/05/22 12:19:46;;;;;;;3.78;1.45;;;;;;;;;;6300962;28;20079;-53
2022/05/22 12:23:09;;;;;;;4.57;1.20;;;;;;;;;;6302851;28;20483;-56
2022/05/22 12:26:13;;;;;;;3.53;1.75;;;;;;;;;;6304351;28;20041;-53
2022/05/22 12:29:24;;;;;;;3.22;1.15;;;;;;;;;;6302027;28;20044;-57
2022/05/22 12:32:28;;;;;;;2.58;1.30;;;;;;;;;;6301915;28;20076;-53
2022/05/22 12:35:29;;;;;;;4.15;1.48;;;;;;;;;;6303688;28;20032;-52
2022/05/22 12:38:30;;;;;;;4.70;1.52;;;;;;;;;;6304119;28;20056;-54
2022/05/22 12:41:35;;;;;;;3.67;1.40;;;;;;;;;;6305108;28;20044;-57
2022/05/22 12:44:36;;;;;;;6.40;1.40;;;;;;;;;;6303410;28;20048;-55
2022/05/22 12:47:45;;;;;;;4.97;1.48;;;;;;;;;;6302363;28;20109;-57
2022/05/22 12:50:49;;;;;;;3.80;1.33;;;;;;;;;;6300225;28;20083;-55
2022/05/22 12:53:52;;;;;;;3.95;1.30;;;;;;;;;;6303842;28;20078;-58
2022/05/22 12:57:05;;;;;;;2.50;1.02;;;;;;;;;;6303730;28;20055;-55
2022/05/22 13:00:11;;;;;;;5.15;1.20;;;;;;;;;;6302316;28;20090;-58
2022/05/22 13:03:18;;;;;;;3.30;1.58;;;;;;;;;;6289879;28;20100;-56
2022/05/22 13:06:31;;;;;;;3.55;1.30;;;;;;;;;;6284526;28;20086;-53
2022/05/22 13:09:38;;;;;;;2.83;1.10;;;;;;;;;;6278291;28;20086;-53
2022/05/22 13:12:41;;;;;;;3.00;1.40;;;;;;;;;;6287122;28;20633;-53
2022/05/22 13:16:03;;;;;;;4.57;1.40;;;;;;;;;;6282308;28;20051;-54
2022/05/22 13:19:16;;;;;;;3.67;1.40;;;;;;;;;;6284701;28;20138;-53
2022/05/22 13:22:33;;;;;;;3.28;1.40;;;;;;;;;;6285708;28;20047;-55
2022/05/22 13:25:42;;;;;;;3.95;1.50;;;;;;;;;;6285248;28;20114;-55
2022/05/22 13:28:56;;;;;;;4.60;1.55;;;;;;;;;;6286227;28;20072;-53
2022/05/22 13:31:59;;;;;;;5.50;1.52;;;;;;;;;;6288822;28;20054;-54
2022/05/22 13:35:01;;;;;;;3.63;1.40;;;;;;;;;;6286228;28;20048;-57
2022/05/22 13:38:04;;;;;;;5.78;3.13;;;;;;;;;;6285811;28;20075;-52
2022/05/22 13:41:34;;;;;;;5.30;1.60;;;;;;;;;;6285390;28;20047;-54
2022/05/22 13:44:38;;;;;;;3.58;1.42;;;;;;;;;;6284190;28;20180;-53
2022/05/22 13:48:12;;;;;;;2.95;1.30;;;;;;;;;;6282619;28;21493;-58
2022/05/22 13:54:48;;;;;;;4.17;1.43;;;;;;;;;;6285743;28;20079;-56
2022/05/22 13:58:04;;;;;;;2.67;1.10;;;;;;;;;;6282468;28;20324;-56
2022/05/22 14:01:14;;;;;;;2.58;1.40;;;;;;;;;;6284338;28;20052;-54
2022/05/22 14:04:16;;;;;;;4.47;1.42;;;;;;;;;;6285538;28;20163;-52
2022/05/22 14:07:28;;;;;;;3.67;1.45;;;;;;;;;;6279477;28;20047;-53
2022/05/22 14:10:31;;;;;;;;;;;;;;;;;;6281856;28;20079;-50
2022/05/22 14:13:31;;;;;;;;;;;;;;;;;;6288857;28;20323;-53
2022/05/22 14:16:36;;;;;;;4.35;1.48;;;;;;;;;;6286124;28;19928;-49
2022/05/22 14:19:40;;;;;;;2.47;1.30;;;;;;;;;;6282330;28;20056;-51
2022/05/22 14:22:45;;;;;;;3.88;1.40;;;;;;;;;;6286113;28;20146;-53
2022/05/22 14:25:47;;;;;;;3.78;1.40;;;;;;;;;;6287531;28;20810;-50
2022/05/22 14:28:50;;;;;;;3.28;1.70;;;;;;;;;;6286015;28;20445;-53
2022/05/22 14:31:52;;;;;;;4.28;1.52;;;;;;;;;;6290068;28;20886;-52
2022/05/22 14:34:53;;;;;;;5.53;1.70;;;;;;;;;;6289840;28;20091;-53
2022/05/22 14:37:53;;;;;;;5.05;1.73;;;;;;;;;;6287382;28;20068;-52
2022/05/22 14:40:58;;;;;;;4.00;1.30;;;;;;;;;;6283030;28;20059;-52
2022/05/22 14:44:07;;;;;;;3.92;1.45;;;;;;;;;;6285520;28;20149;-49
2022/05/22 14:47:10;;;;;;;4.97;1.48;;;;;;;;;;6284086;28;20079;-55
2022/05/22 14:50:11;;;;;;;3.22;1.30;;;;;;;;;;6284421;28;20290;-52
2022/05/22 14:53:18;;;;;;;3.20;1.58;;;;;;;;;;6292683;28;20563;-54
2022/05/22 14:56:22;;;;;;;2.88;1.30;;;;;;;;;;6293481;28;20051;-51
2022/05/22 14:59:37;;;;;;;3.63;1.60;;;;;;;;;;6291856;28;20134;-52
2022/05/22 15:02:58;;;;;;;4.03;1.60;;;;;;;;;;6291978;28;20098;-52
2022/05/22 15:05:59;;;;;;;3.05;1.50;;;;;;;;;;6287282;28;20075;-50
2022/05/22 15:09:04;;;;;;;4.60;1.47;;;;;;;;;;6288724;28;20048;-51
2022/05/22 15:12:08;;;;;;;4.55;1.70;;;;;;;;;;6290273;28;20127;-52
2022/05/22 15:15:08;;;;;;;5.32;1.60;;;;;;;;;;6287372;28;20150;-56
2022/05/22 15:19:48;;;;;;;4.13;1.70;;;;;;;;;;6286736;28;21418;-57
2022/05/22 15:21:44;;;;;;;4.15;1.80;;;;;;;;;;6287422;28;20048;-53
2022/05/22 15:28:19;;;;;;;3.78;1.70;;;;;;;;;;6289630;28;20075;-56
2022/05/22 15:31:33;;;;;;;4.35;1.70;;;;;;;;;;6289085;28;20087;-56
2022/05/22 15:34:33;;;;;;;5.60;1.58;;;;;;;;;;6287398;28;20047;-53
2022/05/22 15:37:44;;;;;;;2.78;1.40;;;;;;;;;;6292629;28;20059;-51
2022/05/22 15:40:49;;;;;;;4.53;1.58;;;;;;;;;;6294553;28;20095;-52
2022/05/22 15:44:08;;;;;;;4.30;1.83;;;;;;;;;;6289286;28;20102;-64
2022/05/22 15:47:18;;;;;;;8.48;1.90;;;;;;;;;;6289158;28;20067;-60
2022/05/22 15:53:39;;;;;;;4.90;1.60;;;;;;;;;;6298283;28;20062;-59
2022/05/22 15:56:40;;;;;;;3.78;1.67;;;;;;;;;;6301052;28;20052;-59
2022/05/22 15:59:41;;;;;;;4.70;1.77;;;;;;;;;;6296750;28;20044;-59
2022/05/22 16:02:46;;;;;;;3.27;1.70;;;;;;;;;;6301519;28;20060;-58
2022/05/22 16:05:48;;;;;;;4.53;1.67;;;;;;;;;;6300194;28;20490;-60
2022/05/22 16:08:49;;;;;;;7.38;1.90;;;;;;;;;;6300056;28;20585;-59
2022/05/22 16:11:52;;;;;;;6.60;2.05;;;;;;;;;;6299360;28;20041;-58
2022/05/22 16:14:53;;;;;;;4.47;1.75;;;;;;;;;;6301230;28;20083;-58
2022/05/22 16:18:03;;;;;;;4.32;1.70;;;;;;;;;;6298761;28;20036;-57
2022/05/22 16:21:05;;;;;;;5.65;1.80;;;;;;;;;;6298910;28;20887;-57
2022/05/22 16:24:06;;;;;;;4.40;1.95;;;;;;;;;;6301332;28;20086;-58
2022/05/22 16:27:07;;;;;;;4.13;1.88;;;;;;;;;;6301709;28;20067;-56
2022/05/22 16:30:09;;;;;;;4.30;1.90;;;;;;;;;;6303635;28;20056;-57
2022/05/22 16:33:10;;;;;;;3.60;1.90;;;;;;;;;;6301898;28;20072;-58
2022/05/22 16:36:11;;;;;;;4.13;1.80;;;;;;;;;;6303965;28;20204;-57
2022/05/22 16:39:12;;;;;;;3.38;2.00;;;;;;;;;;6300461;28;20054;-58
2022/05/22 16:42:13;;;;;;;4.03;1.80;;;;;;;;;;6303508;28;20131;-55
2022/05/22 16:45:15;;;;;;;3.63;1.70;;;;;;;;;;6305860;28;20086;-54
2022/05/22 16:54:53;;;;;;;5.95;2.10;;;;;;;;;;6302807;28;20437;-58
2022/05/22 16:57:54;;;;;;;6.20;2.20;;;;;;;;;;6300227;28;20052;-57
2022/05/22 17:00:56;;;;;;;5.32;2.10;;;;;;;;;;6303147;28;20504;-52
2022/05/22 17:03:57;;;;;;;5.63;2.28;;;;;;;;;;6299994;28;20150;-58
2022/05/22 17:06:59;;;;;;;5.47;1.98;;;;;;;;;;6304037;28;20048;-53
2022/05/22 17:10:02;;;;;;;4.55;1.83;;;;;;;;;;6301938;28;20076;-51
2022/05/22 17:13:04;;;;;;;3.67;2.00;;;;;;;;;;6300776;28;20051;-51
2022/05/22 17:16:06;;;;;;;4.20;2.00;;;;;;;;;;6301758;28;20480;-54
2022/05/22 17:19:06;;;;;;;3.47;1.60;;;;;;;;;;6300884;28;20044;-58
2022/05/22 17:22:09;;;;;;;3.55;1.67;;;;;;;;;;6302810;28;20101;-53
2022/05/22 17:25:16;;;;;;;4.97;2.00;;;;;;;;;;6304236;28;20082;-55
2022/05/22 17:28:17;;;;;;;4.72;1.95;;;;;;;;;;6300379;28;20185;-54
2022/05/22 17:31:19;;;;;;;4.15;1.98;;;;;;;;;;6299892;28;20040;-57
2022/05/22 17:34:20;;;;;;;5.32;2.00;;;;;;;;;;6302654;28;20112;-53
2022/05/22 17:37:27;;;;;;;6.45;2.00;;;;;;;;;;6301365;28;20431;-54
2022/05/22 17:40:32;;;;;;;4.10;1.90;;;;;;;;;;6302799;28;20117;-54
2022/05/22 17:43:34;;;;;;;3.88;2.00;;;;;;;;;;6303201;28;20052;-53
2022/05/22 17:46:34;;;;;;;6.07;2.92;;;;;;;;;;6303900;28;20055;-55
2022/05/22 17:49:35;;;;;;;7.88;3.17;;;;;;;;;;6302370;28;20410;-52
2022/05/22 17:52:36;;;;;;;5.43;2.85;;;;;;;;;;6303199;28;20505;-59
2022/05/22 17:55:37;;;;;;;5.25;2.80;;;;;;;;;;6303342;28;20481;-57
2022/05/22 17:58:40;;;;;;;6.40;2.70;;;;;;;;;;6299938;28;20056;-51
2022/05/22 18:01:41;;;;;;;5.38;3.10;;;;;;;;;;6301255;28;20067;-54
2022/05/22 18:04:42;;;;;;;9.07;3.72;;;;;;;;;;6303690;28;20044;-57
2022/05/22 18:07:44;;;;;;;5.93;3.03;;;;;;;;;;6299948;28;20051;-54
2022/05/22 18:17:31;;;;;;;5.65;2.60;;;;;;;;;;6301572;28;20056;-53
2022/05/22 18:20:32;;;;;;;5.40;3.08;;;;;;;;;;6302753;28;20051;-55
2022/05/22 18:23:40;;;;;;;6.13;3.00;;;;;;;;;;6302128;28;20131;-57
2022/05/22 18:26:40;;;;;;;5.85;2.92;;;;;;;;;;6306458;28;20709;-52
2022/05/22 18:29:41;;;;;;;5.93;2.97;;;;;;;;;;6302010;28;20048;-57
2022/05/22 18:32:42;;;;;;;6.75;3.08;;;;;;;;;;6306502;28;20055;-57
2022/05/22 18:35:44;;;;;;;6.25;2.83;;;;;;;;;;6308720;28;20044;-56
2022/05/22 18:38:45;;;;;;;6.32;2.60;;;;;;;;;;6304886;28;20048;-58
2022/05/22 18:41:47;;;;;;;6.95;2.70;;;;;;;;;;6308116;28;20135;-58
2022/05/22 18:44:49;;;;;;;9.80;3.58;;;;;;;;;;6308470;28;20040;-53
2022/05/22 18:47:50;;;;;;;8.90;3.22;;;;;;;;;;6304653;28;20048;-55
2022/05/22 18:50:51;;;;;;;7.70;3.22;;;;;;;;;;6301179;28;20917;-57
2022/05/22 18:53:53;;;;;;;8.30;3.67;;;;;;;;;;6306001;28;20044;-57
2022/05/22 18:56:53;;;;;;;8.45;4.03;;;;;;;;;;6306471;28;20056;-54
2022/05/22 18:59:54;;;;;;;5.38;2.90;;;;;;;;;;6305321;28;20058;-56
2022/05/22 19:02:55;;;;;;;7.25;3.25;;;;;;;;;;6305565;28;20056;-51
2022/05/22 19:05:56;;;;;;;8.82;3.40;;;;;;;;;;6305907;28;20426;-52
2022/05/22 19:08:59;;;;;;;9.75;3.35;;;;;;;;;;6304935;28;20062;-52
2022/05/22 19:12:04;;;;;;;6.97;3.95;;;;;;;;;;6306551;28;20225;-57
2022/05/22 19:15:05;;;;;;;8.18;4.07;;;;;;;;;;6302377;28;20549;-58
2022/05/22 19:18:07;;;;;;;7.07;3.40;;;;;;;;;;6302476;28;21681;-56
2022/05/22 19:21:07;;;;;;;8.20;4.45;;;;;;;;;;6306236;28;20060;-57
2022/05/22 19:24:09;;;;;;;9.88;4.07;;;;;;;;;;6304734;28;20540;-57
2022/05/22 19:27:12;;;;;;;8.68;4.00;;;;;;;;;;6305975;28;20514;-58
2022/05/22 19:30:18;;;;;;;6.25;3.85;;;;;;;;;;6305346;28;20104;-56
2022/05/22 19:33:20;;;;;;;8.63;4.05;;;;;;;;;;6306368;28;20047;-55
2022/05/22 19:36:23;;;;;;;9.02;4.15;;;;;;;;;;6303850;28;20131;-58
2022/05/22 19:39:26;;;;;;;8.10;3.92;;;;;;;;;;6304718;28;20439;-56
2022/05/22 19:45:48;;;;;;;7.03;3.80;;;;;;;;;;6305527;28;20047;-58
2022/05/22 19:48:49;;;;;;;;;;;;;;;;;;6304104;28;20075;-59
2022/05/22 19:51:49;;;;;;;7.38;3.70;;;;;;;;;;6305271;28;19923;-57
2022/05/22 20:01:33;;;;;;;8.07;4.10;;;;;;;;;;6305431;28;20044;-52
2022/05/22 20:04:34;;;;;;;7.53;4.38;;;;;;;;;;6304661;28;20518;-54
2022/05/22 20:07:37;;;;;;;9.02;4.38;;;;;;;;;;6301982;28;20052;-56
2022/05/22 20:10:39;;;;;;;10.45;5.00;;;;;;;;;;6304949;28;20131;-56
2022/05/22 20:13:42;;;;;;;10.32;4.55;;;;;;;;;;6304914;28;20056;-60
2022/05/22 20:16:42;;;;;;;8.10;4.20;;;;;;;;;;6304952;28;20655;-59
2022/05/22 20:19:43;;;;;;;9.30;4.57;;;;;;;;;;6304711;28;20047;-58
2022/05/22 20:22:45;;;;;;;8.38;4.13;;;;;;;;;;6301485;28;20048;-56
2022/05/22 20:25:47;;;;;;;8.57;4.45;;;;;;;;;;6301811;28;20503;-57
2022/05/22 20:28:49;;;;;;;7.80;4.90;;;;;;;;;;6301957;28;20134;-58
2022/05/22 20:31:50;;;;;;;8.50;4.25;;;;;;;;;;6284299;28;20056;-54
2022/05/22 20:34:52;;;;;;;10.05;4.78;;;;;;;;;;6283641;28;20048;-58
2022/05/22 20:37:52;;;;;;;9.60;5.50;;;;;;;;;;6282031;28;20113;-56
2022/05/22 20:40:55;;;;;;;8.60;4.90;;;;;;;;;;6280529;28;20048;-58
2022/05/22 20:43:58;;;;;;;11.27;5.10;;;;;;;;;;6283168;28;20048;-58
2022/05/22 20:47:00;;;;;;;9.27;5.38;;;;;;;;;;6283261;28;20072;-58
2022/05/22 20:50:05;;;;;;;11.10;5.97;;;;;;;;;;6281345;28;20159;-56
2022/05/22 20:53:05;;;;;;;12.18;5.65;;;;;;;;;;6295192;28;20091;-55
2022/05/22 20:59:41;;;;;;;10.75;6.68;;;;;;;;;;6282644;28;20090;-58
2022/05/22 21:02:42;;;;;;;19.63;10.57;;;;;;;;;;6304620;28;20083;-57
2022/05/22 21:05:45;;;;;;;19.77;10.55;;;;;;;;;;6293155;28;20052;-58
2022/05/22 21:08:46;;;;;;;17.33;9.02;;;;;;;;;;6290632;28;20484;-57
2022/05/22 21:11:51;;;;;;;16.25;9.45;;;;;;;;;;6291533;28;20032;-56
2022/05/22 21:14:52;;;;;;;20.20;10.63;;;;;;;;;;6290883;28;20420;-55
2022/05/22 21:17:52;;;;;;;18.42;10.35;;;;;;;;;;6291393;28;20095;-58
2022/05/22 21:20:53;;;;;;;15.60;9.35;;;;;;;;;;6290817;28;20135;-53
2022/05/22 21:30:40;;;;;;;14.15;8.88;;;;;;;;;;6290473;28;20048;-58
2022/05/22 21:33:41;;;;;;;18.35;9.02;;;;;;;;;;6290088;28;20037;-56
2022/05/22 21:36:42;;;;;;;18.10;9.57;;;;;;;;;;6291955;28;20064;-58
2022/05/22 21:39:42;;;;;;;15.85;9.07;;;;;;;;;;6290450;28;20061;-58
2022/05/22 21:42:45;;;;;;;20.55;9.60;;;;;;;;;;6289363;28;20143;-54
2022/05/22 21:45:46;;;;;;;16.33;9.30;;;;;;;;;;6290885;28;20040;-58
2022/05/22 21:48:47;;;;;;;18.73;9.68;;;;;;;;;;6290028;28;20072;-56
2022/05/22 21:51:47;;;;;;;16.75;9.32;;;;;;;;;;6289547;28;20058;-58
2022/05/22 21:54:48;;;;;;;15.38;9.40;;;;;;;;;;6289431;28;20139;-57
2022/05/22 21:57:50;;;;;;;18.50;8.93;;;;;;;;;;6290073;28;21056;-56
2022/05/22 22:01:08;;;;;;;15.43;8.27;;;;;;;;;;6289162;28;20498;-55
2022/05/22 22:04:09;;;;;;;20.70;10.60;;;;;;;;;;6290468;28;20044;-56
2022/05/22 22:07:10;;;;;;;13.25;7.57;;;;;;;;;;6291808;28;20569;-56
2022/05/22 22:10:10;;;;;;;15.32;7.72;;;;;;;;;;6290404;28;20071;-53
2022/05/22 22:13:11;;;;;;;35.28;16.15;;;;;;;;;;6290153;28;20036;-56
2022/05/22 22:16:12;;;;;;;33.03;14.27;;;;;;;;;;6290873;28;20044;-57
2022/05/22 22:19:12;;;;;;;29.88;13.63;;;;;;;;;;6291319;28;20074;-54
2022/05/22 22:22:13;;;;;;;25.95;13.52;;;;;;;;;;6288595;28;20488;-57
2022/05/22 22:25:14;;;;;;;24.63;11.63;;;;;;;;;;6287249;28;20131;-58
2022/05/22 22:28:15;;;;;;;26.15;11.27;;;;;;;;;;6289471;28;20044;-51
2022/05/22 22:31:20;;;;;;;13.02;6.75;;;;;;;;;;6290112;28;20044;-56
2022/05/22 22:34:22;;;;;;;12.55;7.32;;;;;;;;;;6289262;28;20048;-57
2022/05/22 22:37:22;;;;;;;21.55;10.93;;;;;;;;;;6289819;28;20045;-57
2022/05/22 22:40:23;;;;;;;31.95;15.68;;;;;;;;;;6289381;28;20054;-55
2022/05/22 22:43:27;;;;;;;35.85;16.90;;;;;;;;;;6289236;28;20507;-55
2022/05/22 22:46:28;;;;;;;37.60;15.95;;;;;;;;;;6291914;28;20472;-56
2022/05/22 22:49:30;;;;;;;33.97;16.02;;;;;;;;;;6290363;28;20041;-57
2022/05/22 22:52:31;;;;;;;43.40;18.65;;;;;;;;;;6289041;28;20051;-56
2022/05/22 22:58:53;;;;;;;43.45;17.92;;;;;;;;;;6290353;28;20153;-56
2022/05/22 23:01:55;;;;;;;39.63;16.92;;;;;;;;;;6290109;28;20551;-53
2022/05/22 23:04:56;;;;;;;40.13;17.95;;;;;;;;;;6289467;28;20064;-56
2022/05/22 23:07:56;;;;;;;27.77;13.23;;;;;;;;;;6289079;28;21235;-54
2022/05/22 23:10:57;;;;;;;21.63;10.50;;;;;;;;;;6289095;28;20071;-55
2022/05/22 23:13:58;;;;;;;16.30;7.93;;;;;;;;;;6292539;28;20044;-52
2022/05/22 23:16:59;;;;;;;15.13;7.50;;;;;;;;;;6293883;28;20032;-58
2022/05/22 23:20:00;;;;;;;12.00;5.88;;;;;;;;;;6295084;28;20224;-54
2022/05/22 23:23:01;;;;;;;10.60;6.68;;;;;;;;;;6306843;28;20966;-59
2022/05/22 23:26:04;;;;;;;11.10;6.68;;;;;;;;;;6298089;28;20589;-58
2022/05/22 23:29:05;;;;;;;9.38;6.05;;;;;;;;;;6292277;28;20407;-54
2022/05/22 23:32:06;;;;;;;13.00;6.65;;;;;;;;;;6289927;28;20052;-55
2022/05/22 23:35:08;;;;;;;14.52;7.18;;;;;;;;;;6292039;28;23036;-56
2022/05/22 23:38:12;;;;;;;19.40;9.05;;;;;;;;;;6292089;28;20047;-55
2022/05/22 23:41:13;;;;;;;22.58;9.23;;;;;;;;;;6293877;28;20136;-58
2022/05/22 23:44:15;;;;;;;13.05;6.63;;;;;;;;;;6288328;28;20499;-58
2022/05/22 23:47:16;;;;;;;22.63;10.55;;;;;;;;;;6287763;28;20135;-55
2022/05/22 23:50:17;;;;;;;12.10;6.18;;;;;;;;;;6293927;28;20051;-55
2022/05/22 23:53:19;;;;;;;12.00;6.18;;;;;;;;;;6289593;28;20495;-55
2022/05/22 23:56:24;;;;;;;15.70;8.43;;;;;;;;;;6290516;28;20129;-57
2022/05/22 23:59:25;;;;;;;17.73;8.93;;;;;;;;;;6291317;28;20144;-55
